createdAt,value
2023-03-27T00:00:06.857Z,1.23
2023-03-27T00:01:07.050Z,1.20
2023-03-27T00:02:06.913Z,1.21
2023-03-27T00:03:07.052Z,1.20
2023-03-27T00:04:06.964Z,1.23
2023-03-27T00:05:06.802Z,1.21
2023-03-27T00:06:06.797Z,1.20
2023-03-27T00:07:06.845Z,1.18
2023-03-27T00:08:06.814Z,1.16
2023-03-27T00:09:06.798Z,1.12
2023-03-27T00:10:06.758Z,1.10
2023-03-27T00:11:06.786Z,1.09
2023-03-27T00:12:06.739Z,1.09
2023-03-27T00:13:06.707Z,1.08
2023-03-27T00:14:06.877Z,1.06
2023-03-27T00:15:06.739Z,1.05
2023-03-27T00:16:06.702Z,1.00
2023-03-27T00:17:06.674Z,0.98
2023-03-27T00:18:06.789Z,0.98
2023-03-27T00:19:06.754Z,0.92
2023-03-27T00:20:06.687Z,0.91
2023-03-27T00:21:06.655Z,0.87
2023-03-27T00:22:06.647Z,0.85
2023-03-27T00:23:06.649Z,0.82
2023-03-27T00:24:06.635Z,0.80
2023-03-27T00:25:06.635Z,0.78
2023-03-27T00:26:06.621Z,0.74
2023-03-27T00:27:06.580Z,0.72
2023-03-27T00:28:06.592Z,0.73
2023-03-27T00:29:06.662Z,0.70
2023-03-27T00:30:06.809Z,0.67
2023-03-27T00:31:06.585Z,0.64
2023-03-27T00:32:06.599Z,0.62
2023-03-27T00:33:06.553Z,0.60
2023-03-27T00:34:06.553Z,0.56
2023-03-27T00:35:06.564Z,0.59
2023-03-27T00:36:06.759Z,0.53
2023-03-27T00:37:06.456Z,0.51
2023-03-27T00:38:06.475Z,0.50
2023-03-27T00:39:06.482Z,0.48
2023-03-27T00:40:06.486Z,0.45
2023-03-27T00:41:06.485Z,0.44
2023-03-27T00:42:06.544Z,0.45
2023-03-27T00:43:06.516Z,0.45
2023-03-27T00:44:06.430Z,0.43
2023-03-27T00:45:06.427Z,0.44
2023-03-27T00:46:06.443Z,0.44
2023-03-27T00:47:06.375Z,0.40
2023-03-27T00:48:06.446Z,0.40
2023-03-27T00:49:06.372Z,0.37
2023-03-27T00:50:06.453Z,0.36
2023-03-27T00:51:06.376Z,0.36
2023-03-27T00:52:06.395Z,0.37
2023-03-27T00:53:06.326Z,0.37
2023-03-27T00:54:06.352Z,0.40
2023-03-27T00:55:06.351Z,0.37
2023-03-27T00:56:06.384Z,0.36
2023-03-27T00:57:06.341Z,0.36
2023-03-27T00:58:06.287Z,0.36
2023-03-27T00:59:06.318Z,0.35
2023-03-27T01:00:07.631Z,0.33
2023-03-27T01:01:06.265Z,0.35
2023-03-27T01:02:06.298Z,0.32
2023-03-27T01:03:06.448Z,0.33
2023-03-27T01:04:06.307Z,0.35
2023-03-27T01:05:06.247Z,0.35
2023-03-27T01:06:06.271Z,0.33
2023-03-27T01:07:06.444Z,0.35
2023-03-27T01:08:06.203Z,0.32
2023-03-27T01:09:06.164Z,0.33
2023-03-27T01:10:06.218Z,0.36
2023-03-27T01:11:06.207Z,0.37
2023-03-27T01:12:06.245Z,0.36
2023-03-27T01:13:06.159Z,0.36
2023-03-27T01:14:06.108Z,0.36
2023-03-27T01:15:06.210Z,0.35
2023-03-27T01:16:06.132Z,0.35
2023-03-27T01:17:06.122Z,0.33
2023-03-27T01:18:06.152Z,0.32
2023-03-27T01:19:06.161Z,0.29
2023-03-27T01:20:06.067Z,0.29
2023-03-27T01:21:06.144Z,0.26
2023-03-27T01:22:06.089Z,0.25
2023-03-27T01:23:06.058Z,0.23
2023-03-27T01:24:06.072Z,0.22
2023-03-27T01:25:05.985Z,0.18
2023-03-27T01:26:06.045Z,0.18
2023-03-27T01:27:06.042Z,0.15
2023-03-27T01:28:06.225Z,0.14
2023-03-27T01:29:06.016Z,0.11
2023-03-27T01:30:06.096Z,0.11
2023-03-27T01:31:05.986Z,0.08
2023-03-27T01:32:05.976Z,0.08
2023-03-27T01:33:05.955Z,0.09
2023-03-27T01:34:05.910Z,0.09
2023-03-27T01:35:05.896Z,0.09
2023-03-27T01:36:05.907Z,0.09
2023-03-27T01:37:05.864Z,0.11
2023-03-27T01:38:05.951Z,0.07
2023-03-27T01:39:05.861Z,0.04
2023-03-27T01:40:05.841Z,-0.01
2023-03-27T01:41:05.842Z,0.00
2023-03-27T01:42:05.882Z,-0.04
2023-03-27T01:43:05.820Z,-0.07
2023-03-27T01:44:05.870Z,-0.10
2023-03-27T01:45:05.878Z,-0.10
2023-03-27T01:46:05.788Z,-0.14
2023-03-27T01:47:05.794Z,-0.16
2023-03-27T01:48:06.038Z,-0.16
2023-03-27T01:49:05.832Z,-0.16
2023-03-27T01:50:05.787Z,-0.17
2023-03-27T01:51:05.834Z,-0.20
2023-03-27T01:52:05.830Z,-0.20
2023-03-27T01:53:05.726Z,-0.20
2023-03-27T01:54:05.763Z,-0.20
2023-03-27T01:55:05.748Z,-0.17
2023-03-27T01:56:05.762Z,-0.20
2023-03-27T01:57:05.726Z,-0.20
2023-03-27T01:58:05.705Z,-0.20
2023-03-27T01:59:05.794Z,-0.17
2023-03-27T02:00:18.497Z,-0.16
2023-03-27T02:01:05.950Z,-0.11
2023-03-27T02:02:05.635Z,-0.13
2023-03-27T02:03:05.661Z,-0.13
2023-03-27T02:04:05.667Z,-0.11
2023-03-27T02:05:05.697Z,-0.11
2023-03-27T02:06:05.652Z,-0.10
2023-03-27T02:07:05.577Z,-0.10
2023-03-27T02:08:05.587Z,-0.13
2023-03-27T02:09:05.816Z,-0.13
2023-03-27T02:10:05.558Z,-0.10
2023-03-27T02:11:05.568Z,-0.09
2023-03-27T02:12:05.526Z,-0.09
2023-03-27T02:13:05.595Z,-0.11
2023-03-27T02:14:05.591Z,-0.13
2023-03-27T02:15:23.861Z,-0.14
2023-03-27T02:16:05.596Z,-0.20
2023-03-27T02:17:05.454Z,-0.21
2023-03-27T02:18:05.789Z,-0.24
2023-03-27T02:19:05.510Z,-0.24
2023-03-27T02:20:05.514Z,-0.24
2023-03-27T02:21:05.435Z,-0.25
2023-03-27T02:22:05.457Z,-0.27
2023-03-27T02:23:05.430Z,-0.27
2023-03-27T02:24:05.420Z,-0.24
2023-03-27T02:25:05.428Z,-0.21
2023-03-27T02:26:05.406Z,-0.21
2023-03-27T02:27:05.417Z,-0.21
2023-03-27T02:28:05.386Z,-0.21
2023-03-27T02:29:05.350Z,-0.21
2023-03-27T02:30:05.619Z,-0.22
2023-03-27T02:31:31.919Z,-0.25
2023-03-27T02:32:05.484Z,-0.27
2023-03-27T02:33:05.434Z,-0.28
2023-03-27T02:34:05.602Z,-0.27
2023-03-27T02:35:05.366Z,-0.27
2023-03-27T02:36:05.418Z,-0.28
2023-03-27T02:37:05.327Z,-0.29
2023-03-27T02:38:05.281Z,-0.29
2023-03-27T02:39:05.267Z,-0.28
2023-03-27T02:40:05.286Z,-0.27
2023-03-27T02:41:05.281Z,-0.29
2023-03-27T02:42:05.363Z,-0.29
2023-03-27T02:43:05.220Z,-0.32
2023-03-27T02:44:05.212Z,-0.34
2023-03-27T02:45:05.230Z,-0.35
2023-03-27T02:46:05.271Z,-0.35
2023-03-27T02:47:05.251Z,-0.38
2023-03-27T02:48:05.231Z,-0.38
2023-03-27T02:49:05.152Z,-0.39
2023-03-27T02:50:05.178Z,-0.40
2023-03-27T02:51:05.152Z,-0.45
2023-03-27T02:52:05.164Z,-0.45
2023-03-27T02:53:05.106Z,-0.46
2023-03-27T02:54:05.135Z,-0.49
2023-03-27T02:55:05.131Z,-0.52
2023-03-27T02:56:05.091Z,-0.50
2023-03-27T02:57:05.221Z,-0.58
2023-03-27T02:58:05.079Z,-0.60
2023-03-27T02:59:05.099Z,-0.61
2023-03-27T03:00:05.086Z,-0.63
2023-03-27T03:01:05.188Z,-0.66
2023-03-27T03:02:05.124Z,-0.66
2023-03-27T03:03:05.249Z,-0.67
2023-03-27T03:04:05.084Z,-0.70
2023-03-27T03:05:05.026Z,-0.73
2023-03-27T03:06:05.017Z,-0.78
2023-03-27T03:07:05.180Z,-0.81
2023-03-27T03:08:05.037Z,-0.81
2023-03-27T03:09:05.038Z,-0.81
2023-03-27T03:10:05.030Z,-0.85
2023-03-27T03:11:05.251Z,-0.85
2023-03-27T03:12:05.022Z,-0.90
2023-03-27T03:13:05.202Z,-0.89
2023-03-27T03:14:05.151Z,-0.90
2023-03-27T03:15:04.984Z,-0.90
2023-03-27T03:16:05.005Z,-0.94
2023-03-27T03:17:05.079Z,-0.95
2023-03-27T03:18:05.205Z,-0.95
2023-03-27T03:19:05.157Z,-0.95
2023-03-27T03:20:04.993Z,-0.97
2023-03-27T03:21:04.878Z,-0.97
2023-03-27T03:22:05.022Z,-0.95
2023-03-27T03:23:05.023Z,-0.98
2023-03-27T03:24:05.001Z,-0.97
2023-03-27T03:25:05.019Z,-0.97
2023-03-27T03:26:04.843Z,-0.95
2023-03-27T03:27:05.017Z,-0.95
2023-03-27T03:28:04.975Z,-0.95
2023-03-27T03:29:04.843Z,-0.97
2023-03-27T03:30:05.001Z,-0.98
2023-03-27T03:31:05.040Z,-0.95
2023-03-27T03:32:04.942Z,-0.94
2023-03-27T03:33:04.975Z,-0.94
2023-03-27T03:34:04.890Z,-0.92
2023-03-27T03:35:04.789Z,-0.90
2023-03-27T03:36:05.163Z,-0.92
2023-03-27T03:37:04.972Z,-0.90
2023-03-27T03:38:04.928Z,-0.89
2023-03-27T03:39:04.879Z,-0.89
2023-03-27T03:40:05.018Z,-0.92
2023-03-27T03:41:05.090Z,-0.92
2023-03-27T03:42:04.915Z,-0.92
2023-03-27T03:43:04.804Z,-0.95
2023-03-27T03:44:05.007Z,-0.95
2023-03-27T03:45:05.025Z,-0.95
2023-03-27T03:46:04.972Z,-0.97
2023-03-27T03:47:04.738Z,-0.97
2023-03-27T03:48:04.841Z,-0.97
2023-03-27T03:49:05.062Z,-1.01
2023-03-27T03:50:05.743Z,-1.03
2023-03-27T03:51:04.735Z,-1.05
2023-03-27T03:52:05.021Z,-1.05
2023-03-27T03:53:05.027Z,-1.08
2023-03-27T03:54:05.058Z,-1.07
2023-03-27T03:55:04.874Z,-1.08
2023-03-27T03:56:04.846Z,-1.10
2023-03-27T03:57:04.756Z,-1.11
2023-03-27T03:58:04.560Z,-1.11
2023-03-27T03:59:04.688Z,-1.11
2023-03-27T04:00:05.356Z,-1.15
2023-03-27T04:01:04.433Z,-1.16
2023-03-27T04:02:04.551Z,-1.18
2023-03-27T04:03:04.792Z,-1.19
2023-03-27T04:04:04.470Z,-1.19
2023-03-27T04:05:08.426Z,-1.21
2023-03-27T04:06:08.531Z,-1.22
2023-03-27T04:07:04.436Z,-1.21
2023-03-27T04:08:04.531Z,-1.22
2023-03-27T04:09:09.318Z,-1.22
2023-03-27T04:10:04.348Z,-1.21
2023-03-27T04:11:04.366Z,-1.22
2023-03-27T04:12:04.441Z,-1.22
2023-03-27T04:13:04.462Z,-1.25
2023-03-27T04:14:04.297Z,-1.28
2023-03-27T04:15:04.300Z,-1.29
2023-03-27T04:16:04.374Z,-1.29
2023-03-27T04:17:04.315Z,-1.31
2023-03-27T04:18:04.441Z,-1.34
2023-03-27T04:19:04.284Z,-1.34
2023-03-27T04:20:04.248Z,-1.37
2023-03-27T04:21:04.267Z,-1.36
2023-03-27T04:22:05.275Z,-1.36
2023-03-27T04:23:04.238Z,-1.34
2023-03-27T04:24:04.197Z,-1.33
2023-03-27T04:25:04.205Z,-1.34
2023-03-27T04:26:04.276Z,-1.36
2023-03-27T04:27:04.157Z,-1.37
2023-03-27T04:28:04.920Z,-1.36
2023-03-27T04:29:04.224Z,-1.37
2023-03-27T04:30:04.142Z,-1.39
2023-03-27T04:31:04.153Z,-1.39
2023-03-27T04:32:04.183Z,-1.40
2023-03-27T04:33:06.303Z,-1.41
2023-03-27T04:34:04.094Z,-1.41
2023-03-27T04:35:04.101Z,-1.44
2023-03-27T04:36:06.340Z,-1.44
2023-03-27T04:37:04.089Z,-1.44
2023-03-27T04:38:04.106Z,-1.47
2023-03-27T04:39:04.180Z,-1.51
2023-03-27T04:40:04.080Z,-1.51
2023-03-27T04:41:04.079Z,-1.52
2023-03-27T04:42:04.080Z,-1.55
2023-03-27T04:43:04.167Z,-1.57
2023-03-27T04:44:03.992Z,-1.59
2023-03-27T04:45:04.025Z,-1.61
2023-03-27T04:46:03.991Z,-1.58
2023-03-27T04:47:05.412Z,-1.61
2023-03-27T04:48:04.057Z,-1.59
2023-03-27T04:49:03.939Z,-1.58
2023-03-27T04:50:03.956Z,-1.58
2023-03-27T04:51:04.057Z,-1.59
2023-03-27T04:52:05.008Z,-1.59
2023-03-27T04:53:03.862Z,-1.59
2023-03-27T04:54:03.940Z,-1.61
2023-03-27T04:55:03.851Z,-1.61
2023-03-27T04:56:03.884Z,-1.62
2023-03-27T04:57:03.907Z,-1.62
2023-03-27T04:58:03.823Z,-1.64
2023-03-27T04:59:03.870Z,-1.64
2023-03-27T05:00:03.819Z,-1.64
2023-03-27T05:01:03.827Z,-1.65
2023-03-27T05:02:03.777Z,-1.65
2023-03-27T05:03:03.884Z,-1.64
2023-03-27T05:04:03.900Z,-1.64
2023-03-27T05:05:03.757Z,-1.62
2023-03-27T05:06:03.790Z,-1.61
2023-03-27T05:07:03.741Z,-1.58
2023-03-27T05:08:03.813Z,-1.58
2023-03-27T05:09:03.768Z,-1.57
2023-03-27T05:10:03.710Z,-1.55
2023-03-27T05:11:03.880Z,-1.55
2023-03-27T05:12:03.716Z,-1.57
2023-03-27T05:13:03.758Z,-1.55
2023-03-27T05:14:03.736Z,-1.57
2023-03-27T05:15:03.821Z,-1.54
2023-03-27T05:16:03.855Z,-1.55
2023-03-27T05:17:03.919Z,-1.55
2023-03-27T05:18:03.846Z,-1.57
2023-03-27T05:19:04.084Z,-1.57
2023-03-27T05:20:03.708Z,-1.55
2023-03-27T05:21:03.579Z,-1.49
2023-03-27T05:22:03.574Z,-1.49
2023-03-27T05:23:03.681Z,-1.44
2023-03-27T05:24:03.718Z,-1.43
2023-03-27T05:25:03.540Z,-1.44
2023-03-27T05:26:03.537Z,-1.41
2023-03-27T05:27:03.562Z,-1.40
2023-03-27T05:28:03.543Z,-1.39
2023-03-27T05:29:03.516Z,-1.34
2023-03-27T05:30:03.536Z,-1.33
2023-03-27T05:31:03.572Z,-1.25
2023-03-27T05:32:03.472Z,-1.21
2023-03-27T05:33:03.527Z,-1.13
2023-03-27T05:34:03.464Z,-1.07
2023-03-27T05:35:03.562Z,-0.95
2023-03-27T05:36:03.445Z,-0.85
2023-03-27T05:37:03.428Z,-0.75
2023-03-27T05:38:03.392Z,-0.66
2023-03-27T05:39:03.595Z,-0.57
2023-03-27T05:40:03.689Z,-0.47
2023-03-27T05:41:03.816Z,-0.39
2023-03-27T05:42:03.606Z,-0.29
2023-03-27T05:43:03.348Z,-0.10
2023-03-27T05:44:03.358Z,-0.01
2023-03-27T05:45:03.356Z,0.11
2023-03-27T05:46:03.385Z,0.14
2023-03-27T05:47:03.375Z,0.15
2023-03-27T05:48:03.382Z,0.14
2023-03-27T05:49:03.297Z,0.15
2023-03-27T05:50:03.295Z,0.15
2023-03-27T05:51:03.301Z,0.17
2023-03-27T05:52:03.405Z,0.18
2023-03-27T05:53:03.311Z,0.20
2023-03-27T05:54:03.286Z,0.22
2023-03-27T05:55:08.286Z,0.23
2023-03-27T05:56:03.749Z,0.23
2023-03-27T05:57:03.284Z,0.26
2023-03-27T05:58:03.286Z,0.25
2023-03-27T05:59:03.210Z,0.29
2023-03-27T06:00:03.191Z,0.35
2023-03-27T06:01:03.171Z,0.40
2023-03-27T06:02:03.266Z,0.43
2023-03-27T06:03:03.288Z,0.48
2023-03-27T06:04:03.345Z,0.53
2023-03-27T06:05:03.182Z,0.59
2023-03-27T06:06:03.161Z,0.64
2023-03-27T06:07:03.109Z,0.69
2023-03-27T06:08:03.133Z,0.73
2023-03-27T06:09:03.099Z,0.74
2023-03-27T06:10:03.345Z,0.70
2023-03-27T06:11:03.107Z,0.74
2023-03-27T06:12:03.055Z,0.74
2023-03-27T06:13:03.105Z,0.78
2023-03-27T06:14:03.055Z,0.80
2023-03-27T06:15:03.075Z,0.80
2023-03-27T06:16:03.122Z,0.78
2023-03-27T06:17:03.023Z,0.76
2023-03-27T06:18:03.061Z,0.80
2023-03-27T06:19:03.026Z,0.81
2023-03-27T06:20:03.152Z,0.82
2023-03-27T06:21:02.981Z,0.78
2023-03-27T06:22:02.958Z,0.78
2023-03-27T06:23:02.958Z,0.76
2023-03-27T06:24:02.963Z,0.80
2023-03-27T06:25:03.016Z,0.81
2023-03-27T06:26:02.960Z,0.81
2023-03-27T06:27:02.933Z,0.82
2023-03-27T06:28:02.918Z,0.81
2023-03-27T06:29:07.948Z,0.80
2023-03-27T06:30:03.057Z,0.80
2023-03-27T06:31:02.940Z,0.80
2023-03-27T06:32:02.860Z,0.80
2023-03-27T06:33:02.868Z,0.81
2023-03-27T06:34:02.992Z,0.85
2023-03-27T06:35:02.844Z,0.90
2023-03-27T06:36:02.886Z,0.96
2023-03-27T06:37:02.886Z,0.98
2023-03-27T06:38:02.867Z,0.98
2023-03-27T06:39:02.821Z,1.03
2023-03-27T06:40:02.834Z,1.06
2023-03-27T06:41:02.835Z,1.08
2023-03-27T06:42:02.778Z,1.09
2023-03-27T06:43:02.752Z,1.10
2023-03-27T06:44:02.763Z,1.13
2023-03-27T06:45:02.753Z,1.16
2023-03-27T06:46:02.775Z,1.23
2023-03-27T06:47:02.766Z,1.30
2023-03-27T06:48:17.997Z,1.39
2023-03-27T06:49:02.796Z,1.49
2023-03-27T06:50:02.899Z,1.56
2023-03-27T06:51:02.678Z,1.71
2023-03-27T06:52:02.822Z,1.77
2023-03-27T06:53:04.258Z,1.89
2023-03-27T06:54:02.642Z,1.99
2023-03-27T06:55:02.651Z,2.07
2023-03-27T06:56:02.646Z,2.17
2023-03-27T06:57:02.650Z,2.24
2023-03-27T06:58:02.650Z,2.32
2023-03-27T06:59:02.860Z,2.36
2023-03-27T07:00:02.862Z,2.42
2023-03-27T07:01:02.600Z,2.47
2023-03-27T07:02:02.693Z,2.47
2023-03-27T07:03:02.583Z,2.51
2023-03-27T07:04:02.752Z,2.53
2023-03-27T07:05:05.123Z,2.54
2023-03-27T07:06:02.963Z,2.58
2023-03-27T07:07:02.737Z,2.66
2023-03-27T07:08:14.865Z,2.71
2023-03-27T07:09:02.503Z,2.76
2023-03-27T07:10:02.495Z,2.89
2023-03-27T07:11:11.503Z,2.97
2023-03-27T07:12:02.483Z,3.02
2023-03-27T07:13:02.506Z,3.08
2023-03-27T07:14:02.483Z,3.18
2023-03-27T07:15:02.430Z,3.26
2023-03-27T07:16:02.461Z,3.35
2023-03-27T07:17:02.433Z,3.44
2023-03-27T07:18:02.453Z,3.46
2023-03-27T07:19:02.781Z,3.55
2023-03-27T07:20:02.394Z,3.55
2023-03-27T07:21:02.393Z,3.62
2023-03-27T07:22:02.365Z,3.67
2023-03-27T07:23:02.363Z,3.74
2023-03-27T07:24:02.388Z,3.82
2023-03-27T07:25:02.366Z,3.91
2023-03-27T07:26:02.312Z,4.00
2023-03-27T07:27:02.468Z,4.09
2023-03-27T07:28:04.291Z,4.10
2023-03-27T07:29:02.385Z,4.17
2023-03-27T07:30:02.283Z,4.24
2023-03-27T07:31:02.583Z,4.26
2023-03-27T07:32:06.307Z,4.23
2023-03-27T07:33:02.353Z,4.28
2023-03-27T07:34:02.722Z,4.31
2023-03-27T07:35:02.226Z,4.42
2023-03-27T07:36:02.254Z,4.56
2023-03-27T07:37:02.313Z,4.67
2023-03-27T07:38:02.206Z,4.82
2023-03-27T07:39:02.218Z,4.91
2023-03-27T07:40:02.157Z,5.00
2023-03-27T07:41:02.167Z,5.06
2023-03-27T07:42:02.169Z,5.14
2023-03-27T07:43:02.168Z,5.09
2023-03-27T07:44:02.130Z,5.14
2023-03-27T07:45:04.384Z,5.15
2023-03-27T07:46:02.185Z,5.07
2023-03-27T07:47:02.169Z,4.98
2023-03-27T07:48:02.089Z,4.96
2023-03-27T07:49:02.092Z,5.04
2023-03-27T07:50:02.105Z,4.97
2023-03-27T07:52:02.371Z,5.12
2023-03-27T07:53:02.048Z,5.21
2023-03-27T07:54:02.025Z,5.29
2023-03-27T07:55:02.030Z,5.25
2023-03-27T07:56:02.019Z,5.34
2023-03-27T07:57:02.060Z,5.43
2023-03-27T07:58:03.544Z,5.51
2023-03-27T07:59:01.990Z,5.58
2023-03-27T08:00:01.959Z,5.55
2023-03-27T08:01:02.673Z,5.52
2023-03-27T08:02:02.330Z,5.52
2023-03-27T08:03:02.147Z,5.52
2023-03-27T08:04:02.033Z,5.55
2023-03-27T08:05:02.084Z,5.55
2023-03-27T08:06:01.933Z,5.54
2023-03-27T08:07:03.125Z,5.58
2023-03-27T08:08:01.921Z,5.75
2023-03-27T08:09:02.931Z,5.79
2023-03-27T08:10:02.332Z,5.61
2023-03-27T08:11:01.878Z,5.47
2023-03-27T08:12:01.857Z,5.57
2023-03-27T08:13:01.833Z,5.67
2023-03-27T08:14:01.871Z,5.82
2023-03-27T08:15:01.809Z,5.95
2023-03-27T08:16:01.822Z,6.13
2023-03-27T08:17:14.658Z,6.24
2023-03-27T08:18:01.865Z,6.24
2023-03-27T08:19:01.906Z,6.40
2023-03-27T08:20:01.807Z,6.38
2023-03-27T08:21:01.862Z,6.21
2023-03-27T08:22:01.740Z,6.02
2023-03-27T08:23:01.742Z,5.82
2023-03-27T08:24:01.717Z,5.73
2023-03-27T08:25:01.732Z,5.72
2023-03-27T08:26:01.688Z,5.66
2023-03-27T08:27:01.708Z,5.72
2023-03-27T08:28:01.843Z,5.75
2023-03-27T08:29:01.672Z,5.98
2023-03-27T08:30:01.652Z,6.25
2023-03-27T08:31:02.623Z,6.47
2023-03-27T08:32:01.629Z,6.68
2023-03-27T08:33:01.712Z,6.75
2023-03-27T08:34:01.701Z,6.53
2023-03-27T08:35:01.595Z,6.53
2023-03-27T08:36:01.634Z,6.70
2023-03-27T08:37:01.619Z,6.67
2023-03-27T08:38:01.596Z,6.74
2023-03-27T08:39:01.584Z,6.61
2023-03-27T08:40:01.569Z,6.55
2023-03-27T08:41:01.534Z,6.24
2023-03-27T08:42:01.665Z,6.03
2023-03-27T08:43:01.516Z,5.91
2023-03-27T08:44:01.544Z,5.95
2023-03-27T08:45:01.494Z,5.87
2023-03-27T08:46:01.519Z,5.87
2023-03-27T08:47:01.467Z,5.90
2023-03-27T08:48:01.623Z,5.85
2023-03-27T08:49:01.504Z,5.88
2023-03-27T08:50:01.766Z,5.87
2023-03-27T08:51:01.522Z,6.12
2023-03-27T08:52:01.583Z,6.32
2023-03-27T08:53:01.409Z,6.21
2023-03-27T08:54:01.409Z,6.42
2023-03-27T08:55:01.391Z,6.49
2023-03-27T08:56:01.393Z,6.27
2023-03-27T08:57:01.419Z,6.18
2023-03-27T08:58:01.482Z,6.15
2023-03-27T08:59:01.349Z,6.15
2023-03-27T09:00:01.356Z,6.45
2023-03-27T09:01:01.331Z,6.79
2023-03-27T09:02:01.357Z,7.21
2023-03-27T09:03:01.428Z,7.18
2023-03-27T09:04:01.375Z,7.07
2023-03-27T09:05:01.280Z,6.93
2023-03-27T09:06:01.289Z,6.73
2023-03-27T09:07:01.277Z,6.50
2023-03-27T09:08:01.267Z,6.35
2023-03-27T09:09:01.275Z,6.31
2023-03-27T09:10:01.252Z,6.25
2023-03-27T09:11:01.365Z,6.21
2023-03-27T09:12:01.240Z,6.13
2023-03-27T09:13:01.194Z,6.13
2023-03-27T09:14:01.211Z,6.21
2023-03-27T09:15:01.230Z,6.28
2023-03-27T09:16:01.260Z,6.37
2023-03-27T09:17:01.153Z,6.46
2023-03-27T09:18:01.357Z,6.85
2023-03-27T09:19:01.126Z,6.99
2023-03-27T09:20:01.159Z,6.97
2023-03-27T09:21:01.118Z,6.86
2023-03-27T09:22:01.357Z,6.67
2023-03-27T09:23:01.108Z,6.57
2023-03-27T09:24:01.107Z,6.52
2023-03-27T09:25:01.099Z,6.38
2023-03-27T09:26:01.116Z,6.32
2023-03-27T09:27:07.092Z,6.57
2023-03-27T09:28:01.116Z,6.91
2023-03-27T09:29:01.033Z,6.92
2023-03-27T09:30:05.302Z,7.47
2023-03-27T09:31:01.188Z,7.92
2023-03-27T09:32:01.051Z,7.94
2023-03-27T09:33:01.079Z,8.24
2023-03-27T09:34:01.133Z,8.14
2023-03-27T09:35:01.011Z,8.09
2023-03-27T09:36:01.192Z,8.12
2023-03-27T09:37:00.998Z,8.35
2023-03-27T09:38:00.962Z,8.44
2023-03-27T09:39:00.945Z,8.14
2023-03-27T09:40:00.930Z,7.92
2023-03-27T09:41:00.907Z,7.88
2023-03-27T09:42:01.018Z,8.01
2023-03-27T09:43:00.958Z,7.87
2023-03-27T09:44:00.890Z,8.31
2023-03-27T09:45:00.878Z,8.71
2023-03-27T09:46:00.875Z,9.11
2023-03-27T09:47:00.880Z,9.15
2023-03-27T09:48:01.650Z,9.09
2023-03-27T09:49:00.902Z,8.81
2023-03-27T09:50:00.834Z,8.77
2023-03-27T09:51:01.076Z,8.92
2023-03-27T09:52:00.802Z,9.47
2023-03-27T09:53:00.780Z,9.55
2023-03-27T09:54:00.801Z,9.98
2023-03-27T09:55:00.801Z,9.93
2023-03-27T09:56:02.993Z,9.59
2023-03-27T09:57:00.764Z,8.95
2023-03-27T09:58:00.933Z,8.60
2023-03-27T09:59:00.776Z,8.37
2023-03-27T10:00:00.727Z,8.02
2023-03-27T10:01:00.708Z,7.55
2023-03-27T10:02:00.690Z,7.29
2023-03-27T10:03:00.836Z,7.16
2023-03-27T10:04:00.770Z,7.03
2023-03-27T10:05:01.118Z,7.52
2023-03-27T10:06:00.668Z,8.59
2023-03-27T10:07:00.794Z,9.60
2023-03-27T10:08:00.876Z,10.41
2023-03-27T10:09:00.798Z,10.70
2023-03-27T10:10:00.715Z,10.70
2023-03-27T10:11:00.716Z,10.52
2023-03-27T10:12:00.611Z,11.09
2023-03-27T10:13:00.628Z,10.26
2023-03-27T10:14:00.818Z,9.33
2023-03-27T10:15:01.514Z,8.59
2023-03-27T10:16:00.637Z,8.39
2023-03-27T10:17:00.607Z,9.50
2023-03-27T10:18:00.734Z,10.01
2023-03-27T10:19:00.852Z,10.58
2023-03-27T10:20:00.588Z,10.95
2023-03-27T10:21:00.517Z,11.09
2023-03-27T10:22:00.574Z,11.38
2023-03-27T10:23:00.624Z,11.79
2023-03-27T10:24:00.477Z,12.50
2023-03-27T10:25:00.445Z,12.66
2023-03-27T10:26:00.453Z,11.80
2023-03-27T10:27:00.487Z,11.19
2023-03-27T10:28:00.478Z,10.97
2023-03-27T10:29:00.487Z,11.64
2023-03-27T10:30:00.394Z,12.51
2023-03-27T10:31:00.406Z,12.96
2023-03-27T10:32:00.594Z,13.21
2023-03-27T10:33:00.556Z,13.14
2023-03-27T10:34:00.361Z,13.35
2023-03-27T10:35:00.357Z,13.20
2023-03-27T10:36:00.372Z,12.05
2023-03-27T10:37:00.312Z,11.67
2023-03-27T10:38:00.483Z,11.27
2023-03-27T10:39:00.310Z,11.03
2023-03-27T10:40:00.345Z,10.48
2023-03-27T10:41:00.281Z,10.23
2023-03-27T10:42:00.632Z,9.93
2023-03-27T10:43:00.372Z,9.45
2023-03-27T10:44:00.276Z,9.98
2023-03-27T10:45:00.272Z,9.99
2023-03-27T10:46:00.319Z,9.50
2023-03-27T10:47:00.276Z,8.99
2023-03-27T10:48:00.387Z,8.63
2023-03-27T10:49:00.214Z,8.39
2023-03-27T10:50:00.197Z,8.28
2023-03-27T10:51:00.176Z,9.22
2023-03-27T10:52:00.483Z,9.94
2023-03-27T10:53:00.248Z,11.23
2023-03-27T10:54:00.257Z,11.97
2023-03-27T10:55:00.372Z,12.65
2023-03-27T10:56:00.181Z,13.45
2023-03-27T10:57:00.279Z,14.11
2023-03-27T10:58:00.163Z,14.37
2023-03-27T10:59:00.114Z,14.58
2023-03-27T11:00:00.166Z,13.80
2023-03-27T11:01:00.516Z,12.99
2023-03-27T11:02:00.165Z,12.13
2023-03-27T11:03:00.141Z,11.45
2023-03-27T11:04:00.132Z,10.39
2023-03-27T11:05:00.089Z,9.73
2023-03-27T11:06:00.033Z,9.44
2023-03-27T11:07:00.019Z,9.16
2023-03-27T11:08:00.009Z,9.03
2023-03-27T11:09:00.004Z,8.74
2023-03-27T11:10:00.039Z,9.16
2023-03-27T11:11:00.054Z,8.99
2023-03-27T11:12:00.119Z,10.31
2023-03-27T11:12:59.955Z,9.96
2023-03-27T11:14:00.556Z,9.75
2023-03-27T11:14:59.930Z,10.01
2023-03-27T11:15:59.936Z,10.85
2023-03-27T11:16:59.919Z,11.62
2023-03-27T11:17:59.929Z,11.97
2023-03-27T11:18:59.881Z,12.86
2023-03-27T11:19:59.902Z,13.65
2023-03-27T11:21:02.536Z,13.85
2023-03-27T11:21:59.866Z,13.54
2023-03-27T11:22:59.857Z,13.71
2023-03-27T11:23:59.998Z,14.09
2023-03-27T11:24:59.908Z,14.78
2023-03-27T11:25:59.913Z,15.25
2023-03-27T11:26:59.808Z,14.99
2023-03-27T11:27:59.817Z,15.07
2023-03-27T11:28:59.839Z,15.20
2023-03-27T11:30:00.004Z,14.56
2023-03-27T11:31:00.105Z,13.57
2023-03-27T11:31:59.801Z,13.49
2023-03-27T11:33:00.205Z,13.13
2023-03-27T11:33:59.732Z,11.79
2023-03-27T11:35:01.322Z,10.38
2023-03-27T11:35:59.854Z,9.90
2023-03-27T11:36:59.730Z,9.54
2023-03-27T11:38:00.138Z,9.12
2023-03-27T11:38:59.862Z,8.46
2023-03-27T11:39:59.710Z,8.01
2023-03-27T11:40:59.876Z,7.46
2023-03-27T11:41:59.735Z,7.18
2023-03-27T11:42:59.646Z,6.93
2023-03-27T11:43:59.631Z,6.85
2023-03-27T11:44:59.870Z,6.97
2023-03-27T11:45:59.629Z,7.11
2023-03-27T11:46:59.615Z,7.60
2023-03-27T11:47:59.662Z,7.50
2023-03-27T11:48:59.568Z,7.78
2023-03-27T11:49:59.591Z,8.01
2023-03-27T11:50:59.626Z,7.92
2023-03-27T11:51:59.623Z,8.14
2023-03-27T11:52:59.741Z,8.53
2023-03-27T11:53:59.520Z,8.86
2023-03-27T11:54:59.500Z,9.85
2023-03-27T11:55:59.584Z,10.49
2023-03-27T11:56:59.502Z,10.48
2023-03-27T11:57:59.536Z,10.43
2023-03-27T11:58:59.509Z,10.43
2023-03-27T11:59:59.514Z,11.03
2023-03-27T12:00:59.509Z,11.49
2023-03-27T12:01:59.497Z,12.33
2023-03-27T12:02:59.589Z,11.40
2023-03-27T12:03:59.698Z,10.82
2023-03-27T12:04:59.395Z,10.35
2023-03-27T12:05:59.601Z,10.68
2023-03-27T12:07:04.353Z,10.60
2023-03-27T12:07:59.392Z,10.03
2023-03-27T12:08:59.920Z,9.51
2023-03-27T12:09:59.353Z,9.15
2023-03-27T12:10:59.530Z,9.15
2023-03-27T12:11:59.343Z,10.16
2023-03-27T12:12:59.315Z,10.03
2023-03-27T12:14:02.138Z,10.01
2023-03-27T12:14:59.298Z,9.42
2023-03-27T12:15:59.321Z,10.05
2023-03-27T12:16:59.272Z,10.08
2023-03-27T12:17:59.300Z,9.62
2023-03-27T12:19:06.016Z,9.83
2023-03-27T12:19:59.334Z,10.83
2023-03-27T12:20:59.242Z,11.34
2023-03-27T12:21:59.263Z,12.10
2023-03-27T12:22:59.209Z,11.77
2023-03-27T12:23:59.204Z,12.35
2023-03-27T12:25:00.149Z,11.87
2023-03-27T12:25:59.348Z,11.79
2023-03-27T12:26:59.223Z,11.93
2023-03-27T12:27:59.325Z,11.87
2023-03-27T12:28:59.171Z,12.58
2023-03-27T12:29:59.172Z,13.45
2023-03-27T12:30:59.261Z,13.79
2023-03-27T12:31:59.243Z,13.85
2023-03-27T12:33:00.351Z,13.58
2023-03-27T12:33:59.113Z,14.12
2023-03-27T12:34:59.081Z,14.48
2023-03-27T12:35:59.135Z,14.67
2023-03-27T12:36:59.464Z,14.92
2023-03-27T12:37:59.052Z,14.55
2023-03-27T12:38:59.077Z,14.82
2023-03-27T12:39:59.116Z,15.23
2023-03-27T12:40:59.264Z,14.48
2023-03-27T12:41:59.034Z,13.67
2023-03-27T12:42:59.019Z,12.68
2023-03-27T12:43:59.049Z,11.79
2023-03-27T12:45:00.076Z,10.46
2023-03-27T12:45:58.995Z,10.54
2023-03-27T12:46:59.016Z,10.46
2023-03-27T12:47:59.004Z,10.45
2023-03-27T12:48:58.978Z,9.84
2023-03-27T12:49:58.952Z,9.75
2023-03-27T12:50:59.168Z,9.77
2023-03-27T12:51:58.910Z,9.63
2023-03-27T12:52:59.028Z,9.30
2023-03-27T12:53:59.582Z,9.14
2023-03-27T12:54:58.898Z,8.86
2023-03-27T12:55:58.868Z,8.62
2023-03-27T12:56:58.985Z,8.28
2023-03-27T12:57:59.202Z,7.96
2023-03-27T12:58:58.840Z,7.95
2023-03-27T12:59:59.121Z,8.13
2023-03-27T13:00:59.283Z,8.34
2023-03-27T13:01:58.870Z,8.47
2023-03-27T13:02:58.885Z,8.63
2023-03-27T13:03:58.886Z,8.99
2023-03-27T13:04:59.108Z,9.27
2023-03-27T13:05:58.774Z,9.42
2023-03-27T13:06:58.753Z,9.32